sensor_id;sensor_type;location;lat;lon;timestamp;P1;durP1;ratioP1;P2;durP2;ratioP2
33074;SDS011;19433;51.292;6.868;2022-10-16T00:01:45;3.10;;;2.30;;
33074;SDS011;19433;51.292;6.868;2022-10-16T00:04:10;4.20;;;2.07;;
33074;SDS011;19433;51.292;6.868;2022-10-16T00:06:36;3.17;;;2.40;;
33074;SDS011;19433;51.292;6.868;2022-10-16T00:09:02;3.43;;;2.57;;
33074;SDS011;19433;51.292;6.868;2022-10-16T00:11:29;2.27;;;2.13;;
33074;SDS011;19433;51.292;6.868;2022-10-16T00:14:05;2.40;;;2.20;;
33074;SDS011;19433;51.292;6.868;2022-10-16T00:16:33;2.40;;;2.20;;
33074;SDS011;19433;51.292;6.868;2022-10-16T00:18:58;2.07;;;1.90;;
33074;SDS011;19433;51.292;6.868;2022-10-16T00:21:25;3.70;;;2.50;;
33074;SDS011;19433;51.292;6.868;2022-10-16T00:23:52;5.20;;;2.50;;
33074;SDS011;19433;51.292;6.868;2022-10-16T00:26:25;7.63;;;2.50;;
33074;SDS011;19433;51.292;6.868;2022-10-16T00:28:52;3.03;;;2.83;;
33074;SDS011;19433;51.292;6.868;2022-10-16T00:31:23;5.57;;;2.67;;
33074;SDS011;19433;51.292;6.868;2022-10-16T00:33:49;2.10;;;2.00;;
33074;SDS011;19433;51.292;6.868;2022-10-16T00:36:17;2.50;;;1.93;;
33074;SDS011;19433;51.292;6.868;2022-10-16T00:38:43;1.97;;;1.77;;
33074;SDS011;19433;51.292;6.868;2022-10-16T00:41:11;3.63;;;2.47;;
33074;SDS011;19433;51.292;6.868;2022-10-16T00:43:43;2.37;;;1.73;;
33074;SDS011;19433;51.292;6.868;2022-10-16T00:46:15;2.97;;;2.27;;
33074;SDS011;19433;51.292;6.868;2022-10-16T00:48:42;2.50;;;1.97;;
33074;SDS011;19433;51.292;6.868;2022-10-16T00:51:21;3.27;;;1.70;;
33074;SDS011;19433;51.292;6.868;2022-10-16T00:53:49;1.80;;;1.70;;
33074;SDS011;19433;51.292;6.868;2022-10-16T00:56:15;2.20;;;1.87;;
33074;SDS011;19433;51.292;6.868;2022-10-16T00:58:41;8.00;;;1.97;;
33074;SDS011;19433;51.292;6.868;2022-10-16T01:01:06;2.80;;;1.90;;
33074;SDS011;19433;51.292;6.868;2022-10-16T01:03:33;3.73;;;2.20;;
33074;SDS011;19433;51.292;6.868;2022-10-16T01:11:32;4.63;;;2.40;;
33074;SDS011;19433;51.292;6.868;2022-10-16T01:14:11;2.10;;;1.90;;
33074;SDS011;19433;51.292;6.868;2022-10-16T01:16:47;3.00;;;1.53;;
33074;SDS011;19433;51.292;6.868;2022-10-16T01:19:36;2.40;;;1.57;;
33074;SDS011;19433;51.292;6.868;2022-10-16T01:22:09;2.83;;;2.23;;
33074;SDS011;19433;51.292;6.868;2022-10-16T01:24:38;1.87;;;1.60;;
33074;SDS011;19433;51.292;6.868;2022-10-16T01:30:10;2.53;;;1.90;;
33074;SDS011;19433;51.292;6.868;2022-10-16T01:32:42;3.20;;;1.70;;
33074;SDS011;19433;51.292;6.868;2022-10-16T01:35:17;2.33;;;2.13;;
33074;SDS011;19433;51.292;6.868;2022-10-16T01:40:29;2.93;;;1.87;;
33074;SDS011;19433;51.292;6.868;2022-10-16T01:43:00;2.27;;;2.10;;
33074;SDS011;19433;51.292;6.868;2022-10-16T01:45:29;2.47;;;2.27;;
33074;SDS011;19433;51.292;6.868;2022-10-16T01:47:57;2.00;;;1.90;;
33074;SDS011;19433;51.292;6.868;2022-10-16T01:50:29;2.40;;;1.63;;
33074;SDS011;19433;51.292;6.868;2022-10-16T01:52:56;2.33;;;2.13;;
33074;SDS011;19433;51.292;6.868;2022-10-16T01:55:28;4.70;;;2.17;;
33074;SDS011;19433;51.292;6.868;2022-10-16T01:57:57;2.40;;;2.10;;
33074;SDS011;19433;51.292;6.868;2022-10-16T02:00:24;2.97;;;2.70;;
33074;SDS011;19433;51.292;6.868;2022-10-16T02:02:52;3.47;;;2.33;;
33074;SDS011;19433;51.292;6.868;2022-10-16T02:07:49;3.00;;;2.50;;
33074;SDS011;19433;51.292;6.868;2022-10-16T02:10:15;2.63;;;2.43;;
33074;SDS011;19433;51.292;6.868;2022-10-16T02:12:42;2.00;;;1.90;;
33074;SDS011;19433;51.292;6.868;2022-10-16T02:15:13;5.53;;;2.47;;
33074;SDS011;19433;51.292;6.868;2022-10-16T02:17:38;2.00;;;1.90;;
33074;SDS011;19433;51.292;6.868;2022-10-16T02:20:04;2.60;;;2.27;;
33074;SDS011;19433;51.292;6.868;2022-10-16T02:22:32;2.50;;;2.30;;
33074;SDS011;19433;51.292;6.868;2022-10-16T02:25:12;2.20;;;2.00;;
33074;SDS011;19433;51.292;6.868;2022-10-16T02:27:53;8.23;;;3.13;;
33074;SDS011;19433;51.292;6.868;2022-10-16T02:32:52;2.80;;;2.40;;
33074;SDS011;19433;51.292;6.868;2022-10-16T02:35:20;2.37;;;2.17;;
33074;SDS011;19433;51.292;6.868;2022-10-16T02:37:47;2.33;;;2.10;;
33074;SDS011;19433;51.292;6.868;2022-10-16T02:40:15;2.63;;;2.23;;
33074;SDS011;19433;51.292;6.868;2022-10-16T02:42:41;2.20;;;2.10;;
33074;SDS011;19433;51.292;6.868;2022-10-16T02:45:08;3.13;;;2.13;;
33074;SDS011;19433;51.292;6.868;2022-10-16T02:47:35;3.10;;;2.60;;
33074;SDS011;19433;51.292;6.868;2022-10-16T02:50:00;2.40;;;2.20;;
33074;SDS011;19433;51.292;6.868;2022-10-16T02:52:26;2.80;;;1.70;;
33074;SDS011;19433;51.292;6.868;2022-10-16T02:54:51;2.57;;;2.00;;
33074;SDS011;19433;51.292;6.868;2022-10-16T02:57:16;5.70;;;2.10;;
33074;SDS011;19433;51.292;6.868;2022-10-16T02:59:44;4.60;;;2.00;;
33074;SDS011;19433;51.292;6.868;2022-10-16T03:02:10;2.23;;;2.03;;
33074;SDS011;19433;51.292;6.868;2022-10-16T03:04:35;1.57;;;1.47;;
33074;SDS011;19433;51.292;6.868;2022-10-16T03:07:01;1.57;;;1.50;;
33074;SDS011;19433;51.292;6.868;2022-10-16T03:09:27;3.97;;;2.47;;
33074;SDS011;19433;51.292;6.868;2022-10-16T03:11:52;2.00;;;1.90;;
33074;SDS011;19433;51.292;6.868;2022-10-16T03:14:17;2.90;;;1.60;;
33074;SDS011;19433;51.292;6.868;2022-10-16T03:16:43;3.10;;;1.97;;
33074;SDS011;19433;51.292;6.868;2022-10-16T03:19:08;2.33;;;1.90;;
33074;SDS011;19433;51.292;6.868;2022-10-16T03:21:33;2.13;;;2.03;;
33074;SDS011;19433;51.292;6.868;2022-10-16T03:23:59;1.97;;;1.87;;
33074;SDS011;19433;51.292;6.868;2022-10-16T03:26:24;1.67;;;1.57;;
33074;SDS011;19433;51.292;6.868;2022-10-16T03:28:49;2.13;;;1.57;;
33074;SDS011;19433;51.292;6.868;2022-10-16T03:31:15;1.97;;;1.70;;
33074;SDS011;19433;51.292;6.868;2022-10-16T03:33:42;5.03;;;1.83;;
33074;SDS011;19433;51.292;6.868;2022-10-16T03:36:07;2.87;;;1.77;;
33074;SDS011;19433;51.292;6.868;2022-10-16T03:38:33;1.77;;;1.67;;
33074;SDS011;19433;51.292;6.868;2022-10-16T03:40:58;2.50;;;1.70;;
33074;SDS011;19433;51.292;6.868;2022-10-16T03:43:23;1.90;;;1.57;;
33074;SDS011;19433;51.292;6.868;2022-10-16T03:45:52;2.30;;;2.10;;
33074;SDS011;19433;51.292;6.868;2022-10-16T03:48:18;1.50;;;1.40;;
33074;SDS011;19433;51.292;6.868;2022-10-16T03:50:43;2.50;;;1.70;;
33074;SDS011;19433;51.292;6.868;2022-10-16T03:53:09;2.47;;;2.27;;
33074;SDS011;19433;51.292;6.868;2022-10-16T03:55:34;2.40;;;1.73;;
33074;SDS011;19433;51.292;6.868;2022-10-16T03:58:00;1.90;;;1.80;;
33074;SDS011;19433;51.292;6.868;2022-10-16T04:00:25;2.30;;;2.00;;
33074;SDS011;19433;51.292;6.868;2022-10-16T04:02:51;2.83;;;1.30;;
33074;SDS011;19433;51.292;6.868;2022-10-16T04:05:16;2.10;;;1.93;;
33074;SDS011;19433;51.292;6.868;2022-10-16T04:07:41;2.10;;;1.90;;
33074;SDS011;19433;51.292;6.868;2022-10-16T04:10:06;2.67;;;1.63;;
33074;SDS011;19433;51.292;6.868;2022-10-16T04:12:32;1.80;;;1.70;;
33074;SDS011;19433;51.292;6.868;2022-10-16T04:14:57;1.33;;;1.27;;
33074;SDS011;19433;51.292;6.868;2022-10-16T04:17:23;1.87;;;1.77;;
33074;SDS011;19433;51.292;6.868;2022-10-16T04:19:48;2.10;;;1.90;;
33074;SDS011;19433;51.292;6.868;2022-10-16T04:22:13;1.30;;;1.30;;
33074;SDS011;19433;51.292;6.868;2022-10-16T04:24:38;2.90;;;1.80;;
33074;SDS011;19433;51.292;6.868;2022-10-16T04:27:04;5.93;;;1.50;;
33074;SDS011;19433;51.292;6.868;2022-10-16T04:29:29;1.53;;;1.43;;
33074;SDS011;19433;51.292;6.868;2022-10-16T04:31:54;1.70;;;1.43;;
33074;SDS011;19433;51.292;6.868;2022-10-16T04:34:20;1.67;;;1.57;;
33074;SDS011;19433;51.292;6.868;2022-10-16T04:36:48;2.43;;;1.67;;
33074;SDS011;19433;51.292;6.868;2022-10-16T04:39:14;1.73;;;1.40;;
33074;SDS011;19433;51.292;6.868;2022-10-16T04:41:40;1.60;;;1.50;;
33074;SDS011;19433;51.292;6.868;2022-10-16T04:44:05;2.90;;;1.37;;
33074;SDS011;19433;51.292;6.868;2022-10-16T04:46:30;1.50;;;1.40;;
33074;SDS011;19433;51.292;6.868;2022-10-16T04:48:56;3.60;;;1.90;;
33074;SDS011;19433;51.292;6.868;2022-10-16T04:51:21;2.70;;;1.27;;
33074;SDS011;19433;51.292;6.868;2022-10-16T04:53:46;1.73;;;1.63;;
33074;SDS011;19433;51.292;6.868;2022-10-16T04:56:11;1.60;;;1.43;;
33074;SDS011;19433;51.292;6.868;2022-10-16T04:58:37;1.90;;;1.80;;
33074;SDS011;19433;51.292;6.868;2022-10-16T05:01:05;1.97;;;1.50;;
33074;SDS011;19433;51.292;6.868;2022-10-16T05:03:30;1.67;;;1.20;;
33074;SDS011;19433;51.292;6.868;2022-10-16T05:05:56;1.73;;;1.63;;
33074;SDS011;19433;51.292;6.868;2022-10-16T05:08:21;1.37;;;1.27;;
33074;SDS011;19433;51.292;6.868;2022-10-16T05:10:47;1.70;;;1.43;;
33074;SDS011;19433;51.292;6.868;2022-10-16T05:13:12;2.80;;;1.30;;
33074;SDS011;19433;51.292;6.868;2022-10-16T05:15:37;1.80;;;1.70;;
33074;SDS011;19433;51.292;6.868;2022-10-16T05:18:03;4.87;;;1.53;;
33074;SDS011;19433;51.292;6.868;2022-10-16T05:20:28;1.20;;;1.20;;
33074;SDS011;19433;51.292;6.868;2022-10-16T05:22:54;2.60;;;1.50;;
33074;SDS011;19433;51.292;6.868;2022-10-16T05:25:19;1.60;;;1.50;;
33074;SDS011;19433;51.292;6.868;2022-10-16T05:27:48;1.57;;;1.47;;
33074;SDS011;19433;51.292;6.868;2022-10-16T05:30:14;1.70;;;1.30;;
33074;SDS011;19433;51.292;6.868;2022-10-16T05:32:39;3.00;;;1.43;;
33074;SDS011;19433;51.292;6.868;2022-10-16T05:35:05;3.57;;;1.70;;
33074;SDS011;19433;51.292;6.868;2022-10-16T05:37:30;1.50;;;1.40;;
33074;SDS011;19433;51.292;6.868;2022-10-16T05:39:55;2.27;;;1.60;;
33074;SDS011;19433;51.292;6.868;2022-10-16T05:42:21;2.50;;;1.40;;
33074;SDS011;19433;51.292;6.868;2022-10-16T05:44:47;1.67;;;1.57;;
33074;SDS011;19433;51.292;6.868;2022-10-16T05:47:13;2.53;;;1.43;;
33074;SDS011;19433;51.292;6.868;2022-10-16T05:49:39;1.87;;;1.67;;
33074;SDS011;19433;51.292;6.868;2022-10-16T05:52:04;1.60;;;1.50;;
33074;SDS011;19433;51.292;6.868;2022-10-16T05:54:29;3.57;;;1.20;;
33074;SDS011;19433;51.292;6.868;2022-10-16T05:56:55;7.20;;;1.80;;
33074;SDS011;19433;51.292;6.868;2022-10-16T05:59:20;1.63;;;1.53;;
33074;SDS011;19433;51.292;6.868;2022-10-16T06:01:45;3.60;;;1.73;;
33074;SDS011;19433;51.292;6.868;2022-10-16T06:04:10;2.80;;;1.43;;
33074;SDS011;19433;51.292;6.868;2022-10-16T06:06:36;3.50;;;2.23;;
33074;SDS011;19433;51.292;6.868;2022-10-16T06:09:01;1.60;;;1.50;;
33074;SDS011;19433;51.292;6.868;2022-10-16T06:11:28;1.57;;;1.47;;
33074;SDS011;19433;51.292;6.868;2022-10-16T06:13:56;2.23;;;1.67;;
33074;SDS011;19433;51.292;6.868;2022-10-16T06:16:23;1.47;;;1.47;;
33074;SDS011;19433;51.292;6.868;2022-10-16T06:18:50;3.67;;;1.40;;
33074;SDS011;19433;51.292;6.868;2022-10-16T06:21:18;2.47;;;2.03;;
33074;SDS011;19433;51.292;6.868;2022-10-16T06:23:45;1.60;;;1.50;;
33074;SDS011;19433;51.292;6.868;2022-10-16T06:26:14;2.00;;;1.77;;
33074;SDS011;19433;51.292;6.868;2022-10-16T06:28:41;1.80;;;1.70;;
33074;SDS011;19433;51.292;6.868;2022-10-16T06:31:07;2.20;;;1.50;;
33074;SDS011;19433;51.292;6.868;2022-10-16T06:33:35;2.03;;;1.50;;
33074;SDS011;19433;51.292;6.868;2022-10-16T06:38:27;8.83;;;1.97;;
33074;SDS011;19433;51.292;6.868;2022-10-16T06:40:53;2.03;;;1.93;;
33074;SDS011;19433;51.292;6.868;2022-10-16T06:43:18;2.27;;;1.77;;
33074;SDS011;19433;51.292;6.868;2022-10-16T06:45:49;2.40;;;2.00;;
33074;SDS011;19433;51.292;6.868;2022-10-16T06:48:16;1.97;;;1.77;;
33074;SDS011;19433;51.292;6.868;2022-10-16T06:50:41;1.93;;;1.83;;
33074;SDS011;19433;51.292;6.868;2022-10-16T06:53:06;2.20;;;2.00;;
33074;SDS011;19433;51.292;6.868;2022-10-16T06:55:31;2.20;;;1.50;;
33074;SDS011;19433;51.292;6.868;2022-10-16T06:57:57;1.80;;;1.70;;
33074;SDS011;19433;51.292;6.868;2022-10-16T07:00:22;2.00;;;1.60;;
33074;SDS011;19433;51.292;6.868;2022-10-16T07:02:47;3.00;;;2.13;;
33074;SDS011;19433;51.292;6.868;2022-10-16T07:05:12;1.70;;;1.60;;
33074;SDS011;19433;51.292;6.868;2022-10-16T07:07:38;1.53;;;1.43;;
33074;SDS011;19433;51.292;6.868;2022-10-16T07:10:03;1.73;;;1.30;;
33074;SDS011;19433;51.292;6.868;2022-10-16T07:12:28;1.83;;;1.50;;
33074;SDS011;19433;51.292;6.868;2022-10-16T07:14:54;2.13;;;1.60;;
33074;SDS011;19433;51.292;6.868;2022-10-16T07:17:20;1.90;;;1.80;;
33074;SDS011;19433;51.292;6.868;2022-10-16T07:19:45;2.17;;;1.60;;
33074;SDS011;19433;51.292;6.868;2022-10-16T07:22:11;2.70;;;1.93;;
33074;SDS011;19433;51.292;6.868;2022-10-16T07:24:37;2.13;;;1.53;;
33074;SDS011;19433;51.292;6.868;2022-10-16T07:27:02;2.00;;;1.30;;
33074;SDS011;19433;51.292;6.868;2022-10-16T07:29:28;4.33;;;1.93;;
33074;SDS011;19433;51.292;6.868;2022-10-16T07:31:53;2.60;;;1.87;;
33074;SDS011;19433;51.292;6.868;2022-10-16T07:34:18;2.60;;;1.67;;
33074;SDS011;19433;51.292;6.868;2022-10-16T07:36:49;1.80;;;1.70;;
33074;SDS011;19433;51.292;6.868;2022-10-16T07:39:15;1.67;;;1.57;;
33074;SDS011;19433;51.292;6.868;2022-10-16T07:41:41;1.87;;;1.53;;
33074;SDS011;19433;51.292;6.868;2022-10-16T07:44:06;7.10;;;1.67;;
33074;SDS011;19433;51.292;6.868;2022-10-16T07:46:31;1.33;;;1.17;;
33074;SDS011;19433;51.292;6.868;2022-10-16T07:48:58;1.17;;;1.07;;
33074;SDS011;19433;51.292;6.868;2022-10-16T07:51:24;1.40;;;1.13;;
33074;SDS011;19433;51.292;6.868;2022-10-16T07:53:51;3.43;;;1.20;;
33074;SDS011;19433;51.292;6.868;2022-10-16T07:56:17;1.63;;;1.10;;
33074;SDS011;19433;51.292;6.868;2022-10-16T07:58:43;4.20;;;1.00;;
33074;SDS011;19433;51.292;6.868;2022-10-16T08:01:11;2.73;;;1.00;;
33074;SDS011;19433;51.292;6.868;2022-10-16T08:03:38;1.13;;;0.70;;
33074;SDS011;19433;51.292;6.868;2022-10-16T08:06:06;1.90;;;1.20;;
33074;SDS011;19433;51.292;6.868;2022-10-16T08:08:31;2.30;;;1.13;;
33074;SDS011;19433;51.292;6.868;2022-10-16T08:10:58;3.60;;;1.17;;
33074;SDS011;19433;51.292;6.868;2022-10-16T08:13:25;1.13;;;0.87;;
33074;SDS011;19433;51.292;6.868;2022-10-16T08:15:51;1.57;;;0.97;;
33074;SDS011;19433;51.292;6.868;2022-10-16T08:18:18;1.33;;;0.80;;
33074;SDS011;19433;51.292;6.868;2022-10-16T08:20:44;1.73;;;0.87;;
33074;SDS011;19433;51.292;6.868;2022-10-16T08:23:13;0.80;;;0.80;;
33074;SDS011;19433;51.292;6.868;2022-10-16T08:25:38;0.80;;;0.80;;
33074;SDS011;19433;51.292;6.868;2022-10-16T08:28:05;2.10;;;0.80;;
33074;SDS011;19433;51.292;6.868;2022-10-16T08:30:32;2.57;;;1.10;;
33074;SDS011;19433;51.292;6.868;2022-10-16T08:32:57;2.13;;;0.73;;
33074;SDS011;19433;51.292;6.868;2022-10-16T08:35:23;3.30;;;0.90;;
33074;SDS011;19433;51.292;6.868;2022-10-16T08:37:48;0.70;;;0.63;;
33074;SDS011;19433;51.292;6.868;2022-10-16T08:40:27;2.10;;;1.10;;
33074;SDS011;19433;51.292;6.868;2022-10-16T08:45:36;1.13;;;0.80;;
33074;SDS011;19433;51.292;6.868;2022-10-16T08:48:14;0.90;;;0.77;;
33074;SDS011;19433;51.292;6.868;2022-10-16T08:50:51;0.70;;;0.70;;
33074;SDS011;19433;51.292;6.868;2022-10-16T08:53:20;2.07;;;1.33;;
33074;SDS011;19433;51.292;6.868;2022-10-16T08:55:50;1.37;;;1.00;;
33074;SDS011;19433;51.292;6.868;2022-10-16T08:58:18;3.50;;;1.00;;
33074;SDS011;19433;51.292;6.868;2022-10-16T09:01:03;0.67;;;0.67;;
33074;SDS011;19433;51.292;6.868;2022-10-16T09:03:47;2.43;;;0.80;;
33074;SDS011;19433;51.292;6.868;2022-10-16T09:09:14;1.20;;;0.90;;
33074;SDS011;19433;51.292;6.868;2022-10-16T09:17:04;1.73;;;0.83;;
33074;SDS011;19433;51.292;6.868;2022-10-16T09:19:51;1.37;;;1.00;;
33074;SDS011;19433;51.292;6.868;2022-10-16T09:22:20;2.20;;;0.67;;
33074;SDS011;19433;51.292;6.868;2022-10-16T09:24:53;1.27;;;1.03;;
33074;SDS011;19433;51.292;6.868;2022-10-16T09:27:19;1.47;;;1.00;;
33074;SDS011;19433;51.292;6.868;2022-10-16T09:29:45;2.70;;;0.93;;
33074;SDS011;19433;51.292;6.868;2022-10-16T09:32:12;2.73;;;0.80;;
33074;SDS011;19433;51.292;6.868;2022-10-16T09:34:42;3.00;;;1.00;;
33074;SDS011;19433;51.292;6.868;2022-10-16T09:37:12;0.70;;;0.70;;
33074;SDS011;19433;51.292;6.868;2022-10-16T09:39:49;1.17;;;0.70;;
33074;SDS011;19433;51.292;6.868;2022-10-16T09:42:17;0.80;;;0.80;;
33074;SDS011;19433;51.292;6.868;2022-10-16T09:44:47;2.03;;;0.70;;
33074;SDS011;19433;51.292;6.868;2022-10-16T09:47:16;1.17;;;0.60;;
33074;SDS011;19433;51.292;6.868;2022-10-16T09:52:21;3.20;;;1.30;;
33074;SDS011;19433;51.292;6.868;2022-10-16T09:54:57;1.13;;;0.60;;
33074;SDS011;19433;51.292;6.868;2022-10-16T09:57:24;1.10;;;0.60;;
33074;SDS011;19433;51.292;6.868;2022-10-16T09:59:50;2.87;;;0.80;;
33074;SDS011;19433;51.292;6.868;2022-10-16T10:02:30;1.03;;;0.80;;
33074;SDS011;19433;51.292;6.868;2022-10-16T10:04:59;2.00;;;0.70;;
33074;SDS011;19433;51.292;6.868;2022-10-16T10:07:25;1.70;;;0.70;;
33074;SDS011;19433;51.292;6.868;2022-10-16T10:09:53;0.83;;;0.80;;
33074;SDS011;19433;51.292;6.868;2022-10-16T10:12:26;1.13;;;0.63;;
33074;SDS011;19433;51.292;6.868;2022-10-16T10:14:54;1.57;;;0.83;;
33074;SDS011;19433;51.292;6.868;2022-10-16T10:17:29;0.67;;;0.60;;
33074;SDS011;19433;51.292;6.868;2022-10-16T10:19:56;0.83;;;0.50;;
33074;SDS011;19433;51.292;6.868;2022-10-16T10:22:43;1.37;;;0.83;;
33074;SDS011;19433;51.292;6.868;2022-10-16T10:30:25;1.63;;;0.87;;
33074;SDS011;19433;51.292;6.868;2022-10-16T10:38:30;1.70;;;0.77;;
33074;SDS011;19433;51.292;6.868;2022-10-16T10:41:14;0.70;;;0.63;;
33074;SDS011;19433;51.292;6.868;2022-10-16T10:49:15;2.20;;;0.60;;
33074;SDS011;19433;51.292;6.868;2022-10-16T10:51:52;2.30;;;0.70;;
33074;SDS011;19433;51.292;6.868;2022-10-16T10:57:12;1.07;;;0.70;;
33074;SDS011;19433;51.292;6.868;2022-10-16T11:02:18;0.70;;;0.60;;
33074;SDS011;19433;51.292;6.868;2022-10-16T11:08:06;0.63;;;0.60;;
33074;SDS011;19433;51.292;6.868;2022-10-16T11:16:15;1.70;;;0.90;;
33074;SDS011;19433;51.292;6.868;2022-10-16T11:21:24;0.90;;;0.80;;
33074;SDS011;19433;51.292;6.868;2022-10-16T11:23:53;1.20;;;0.73;;
33074;SDS011;19433;51.292;6.868;2022-10-16T11:26:35;1.70;;;0.80;;
33074;SDS011;19433;51.292;6.868;2022-10-16T11:29:04;1.30;;;0.80;;
33074;SDS011;19433;51.292;6.868;2022-10-16T11:31:39;1.73;;;0.87;;
33074;SDS011;19433;51.292;6.868;2022-10-16T11:39:37;2.07;;;1.23;;
33074;SDS011;19433;51.292;6.868;2022-10-16T11:42:07;1.63;;;0.73;;
33074;SDS011;19433;51.292;6.868;2022-10-16T11:47:23;0.97;;;0.60;;
33074;SDS011;19433;51.292;6.868;2022-10-16T11:49:53;0.60;;;0.60;;
33074;SDS011;19433;51.292;6.868;2022-10-16T11:55:16;2.03;;;1.00;;
33074;SDS011;19433;51.292;6.868;2022-10-16T11:57:49;2.40;;;0.93;;
33074;SDS011;19433;51.292;6.868;2022-10-16T12:02:52;0.70;;;0.67;;
33074;SDS011;19433;51.292;6.868;2022-10-16T12:05:31;2.30;;;1.00;;
33074;SDS011;19433;51.292;6.868;2022-10-16T12:08:09;0.97;;;0.70;;
33074;SDS011;19433;51.292;6.868;2022-10-16T12:10:38;1.23;;;0.80;;
33074;SDS011;19433;51.292;6.868;2022-10-16T12:18:38;1.23;;;0.80;;
33074;SDS011;19433;51.292;6.868;2022-10-16T12:21:05;1.13;;;0.90;;
33074;SDS011;19433;51.292;6.868;2022-10-16T12:23:32;1.77;;;0.77;;
33074;SDS011;19433;51.292;6.868;2022-10-16T12:26:11;1.17;;;0.70;;
33074;SDS011;19433;51.292;6.868;2022-10-16T12:28:37;4.03;;;1.23;;
33074;SDS011;19433;51.292;6.868;2022-10-16T12:31:07;1.60;;;0.70;;
33074;SDS011;19433;51.292;6.868;2022-10-16T12:33:40;1.53;;;0.87;;
33074;SDS011;19433;51.292;6.868;2022-10-16T12:36:13;2.60;;;1.27;;
33074;SDS011;19433;51.292;6.868;2022-10-16T12:38:48;1.87;;;0.80;;
33074;SDS011;19433;51.292;6.868;2022-10-16T12:41:32;1.90;;;0.70;;
33074;SDS011;19433;51.292;6.868;2022-10-16T12:44:00;1.33;;;0.80;;
33074;SDS011;19433;51.292;6.868;2022-10-16T12:49:04;1.23;;;0.80;;
33074;SDS011;19433;51.292;6.868;2022-10-16T12:51:39;1.60;;;0.77;;
33074;SDS011;19433;51.292;6.868;2022-10-16T13:05:58;2.30;;;0.80;;
33074;SDS011;19433;51.292;6.868;2022-10-16T13:09:02;0.97;;;0.80;;
33074;SDS011;19433;51.292;6.868;2022-10-16T13:14:45;2.70;;;0.60;;
33074;SDS011;19433;51.292;6.868;2022-10-16T13:17:30;0.90;;;0.60;;
33074;SDS011;19433;51.292;6.868;2022-10-16T13:22:54;2.10;;;0.93;;
33074;SDS011;19433;51.292;6.868;2022-10-16T13:25:27;1.53;;;0.70;;
33074;SDS011;19433;51.292;6.868;2022-10-16T13:28:05;2.33;;;0.87;;
33074;SDS011;19433;51.292;6.868;2022-10-16T13:30:50;2.27;;;0.77;;
33074;SDS011;19433;51.292;6.868;2022-10-16T13:36:04;1.37;;;0.80;;
33074;SDS011;19433;51.292;6.868;2022-10-16T13:38:32;2.20;;;0.90;;
33074;SDS011;19433;51.292;6.868;2022-10-16T13:41:00;0.90;;;0.70;;
33074;SDS011;19433;51.292;6.868;2022-10-16T13:46:27;1.47;;;0.80;;
33074;SDS011;19433;51.292;6.868;2022-10-16T13:49:01;2.53;;;0.93;;
33074;SDS011;19433;51.292;6.868;2022-10-16T13:51:31;2.47;;;0.80;;
33074;SDS011;19433;51.292;6.868;2022-10-16T13:53:58;1.77;;;0.97;;
33074;SDS011;19433;51.292;6.868;2022-10-16T13:56:27;3.17;;;0.70;;
33074;SDS011;19433;51.292;6.868;2022-10-16T13:59:05;0.67;;;0.67;;
33074;SDS011;19433;51.292;6.868;2022-10-16T14:01:41;1.27;;;0.60;;
33074;SDS011;19433;51.292;6.868;2022-10-16T14:04:09;1.70;;;0.60;;
33074;SDS011;19433;51.292;6.868;2022-10-16T14:06:44;2.30;;;0.80;;
33074;SDS011;19433;51.292;6.868;2022-10-16T14:09:24;2.17;;;0.70;;
33074;SDS011;19433;51.292;6.868;2022-10-16T14:11:55;3.13;;;0.70;;
33074;SDS011;19433;51.292;6.868;2022-10-16T14:14:25;2.53;;;0.50;;
33074;SDS011;19433;51.292;6.868;2022-10-16T14:16:55;1.70;;;0.80;;
33074;SDS011;19433;51.292;6.868;2022-10-16T14:19:21;1.47;;;0.87;;
33074;SDS011;19433;51.292;6.868;2022-10-16T14:21:52;1.43;;;0.80;;
33074;SDS011;19433;51.292;6.868;2022-10-16T14:26:55;2.20;;;0.90;;
33074;SDS011;19433;51.292;6.868;2022-10-16T14:29:22;1.60;;;0.80;;
33074;SDS011;19433;51.292;6.868;2022-10-16T14:31:59;0.90;;;0.80;;
33074;SDS011;19433;51.292;6.868;2022-10-16T14:34:38;2.17;;;1.00;;
33074;SDS011;19433;51.292;6.868;2022-10-16T14:37:06;0.80;;;0.77;;
33074;SDS011;19433;51.292;6.868;2022-10-16T14:39:50;1.10;;;0.90;;
33074;SDS011;19433;51.292;6.868;2022-10-16T14:42:17;2.00;;;1.00;;
33074;SDS011;19433;51.292;6.868;2022-10-16T14:44:44;1.50;;;1.00;;
33074;SDS011;19433;51.292;6.868;2022-10-16T14:47:16;0.87;;;0.63;;
33074;SDS011;19433;51.292;6.868;2022-10-16T14:49:54;2.10;;;1.03;;
33074;SDS011;19433;51.292;6.868;2022-10-16T14:52:24;1.00;;;0.90;;
33074;SDS011;19433;51.292;6.868;2022-10-16T14:54:50;0.80;;;0.80;;
33074;SDS011;19433;51.292;6.868;2022-10-16T14:57:20;1.17;;;0.80;;
33074;SDS011;19433;51.292;6.868;2022-10-16T14:59:48;2.20;;;0.77;;
33074;SDS011;19433;51.292;6.868;2022-10-16T15:02:25;1.67;;;1.00;;
33074;SDS011;19433;51.292;6.868;2022-10-16T15:04:54;1.93;;;1.23;;
33074;SDS011;19433;51.292;6.868;2022-10-16T15:07:20;0.83;;;0.83;;
33074;SDS011;19433;51.292;6.868;2022-10-16T15:09:48;1.57;;;1.30;;
33074;SDS011;19433;51.292;6.868;2022-10-16T15:12:19;3.03;;;0.97;;
33074;SDS011;19433;51.292;6.868;2022-10-16T15:14:50;2.20;;;1.00;;
33074;SDS011;19433;51.292;6.868;2022-10-16T15:17:15;1.30;;;1.20;;
33074;SDS011;19433;51.292;6.868;2022-10-16T15:19:40;2.03;;;1.57;;
33074;SDS011;19433;51.292;6.868;2022-10-16T15:22:08;2.47;;;1.50;;
33074;SDS011;19433;51.292;6.868;2022-10-16T15:24:36;1.90;;;1.80;;
33074;SDS011;19433;51.292;6.868;2022-10-16T15:27:01;3.03;;;1.27;;
33074;SDS011;19433;51.292;6.868;2022-10-16T15:29:27;1.87;;;1.40;;
33074;SDS011;19433;51.292;6.868;2022-10-16T15:31:52;4.50;;;1.63;;
33074;SDS011;19433;51.292;6.868;2022-10-16T15:34:17;1.87;;;1.10;;
33074;SDS011;19433;51.292;6.868;2022-10-16T15:36:44;4.10;;;1.60;;
33074;SDS011;19433;51.292;6.868;2022-10-16T15:39:16;1.43;;;1.33;;
33074;SDS011;19433;51.292;6.868;2022-10-16T15:41:44;2.33;;;2.13;;
33074;SDS011;19433;51.292;6.868;2022-10-16T15:44:15;1.90;;;1.80;;
33074;SDS011;19433;51.292;6.868;2022-10-16T15:46:40;3.20;;;1.10;;
33074;SDS011;19433;51.292;6.868;2022-10-16T15:49:06;1.57;;;1.20;;
33074;SDS011;19433;51.292;6.868;2022-10-16T15:51:31;2.17;;;1.43;;
33074;SDS011;19433;51.292;6.868;2022-10-16T15:53:58;2.37;;;1.53;;
33074;SDS011;19433;51.292;6.868;2022-10-16T15:56:26;2.63;;;1.43;;
33074;SDS011;19433;51.292;6.868;2022-10-16T15:58:53;1.50;;;1.40;;
33074;SDS011;19433;51.292;6.868;2022-10-16T16:01:19;2.37;;;1.60;;
33074;SDS011;19433;51.292;6.868;2022-10-16T16:03:44;1.83;;;1.27;;
33074;SDS011;19433;51.292;6.868;2022-10-16T16:06:12;3.53;;;1.50;;
33074;SDS011;19433;51.292;6.868;2022-10-16T16:08:38;2.70;;;1.17;;
33074;SDS011;19433;51.292;6.868;2022-10-16T16:11:08;2.43;;;1.40;;
33074;SDS011;19433;51.292;6.868;2022-10-16T16:13:36;1.53;;;1.23;;
33074;SDS011;19433;51.292;6.868;2022-10-16T16:16:05;1.93;;;1.73;;
33074;SDS011;19433;51.292;6.868;2022-10-16T16:18:34;2.73;;;1.40;;
33074;SDS011;19433;51.292;6.868;2022-10-16T16:21:00;6.10;;;1.67;;
33074;SDS011;19433;51.292;6.868;2022-10-16T16:23:26;2.20;;;1.23;;
33074;SDS011;19433;51.292;6.868;2022-10-16T16:28:39;3.67;;;1.50;;
33074;SDS011;19433;51.292;6.868;2022-10-16T16:31:06;1.90;;;1.10;;
33074;SDS011;19433;51.292;6.868;2022-10-16T16:33:33;1.30;;;1.20;;
33074;SDS011;19433;51.292;6.868;2022-10-16T16:35:59;2.67;;;1.40;;
33074;SDS011;19433;51.292;6.868;2022-10-16T16:38:26;1.83;;;1.43;;
33074;SDS011;19433;51.292;6.868;2022-10-16T16:40:52;1.40;;;1.13;;
33074;SDS011;19433;51.292;6.868;2022-10-16T16:43:18;2.60;;;1.20;;
33074;SDS011;19433;51.292;6.868;2022-10-16T16:45:44;4.03;;;1.50;;
33074;SDS011;19433;51.292;6.868;2022-10-16T16:48:09;1.43;;;1.33;;
33074;SDS011;19433;51.292;6.868;2022-10-16T16:50:35;2.67;;;1.40;;
33074;SDS011;19433;51.292;6.868;2022-10-16T16:53:01;1.60;;;1.17;;